createdAt,value
2023-05-02T00:00:56.506Z,999.93
2023-05-02T00:02:29.423Z,999.90
2023-05-02T00:02:56.596Z,999.86
2023-05-02T00:03:56.585Z,999.90
2023-05-02T00:04:57.480Z,999.92
2023-05-02T00:05:56.475Z,999.90
2023-05-02T00:06:56.529Z,999.89
2023-05-02T00:07:56.445Z,999.90
2023-05-02T00:08:56.490Z,999.94
2023-05-02T00:09:56.440Z,999.95
2023-05-02T00:10:56.420Z,999.98
2023-05-02T00:11:56.453Z,999.98
2023-05-02T00:12:56.406Z,999.96
2023-05-02T00:13:56.469Z,1000.01
2023-05-02T00:14:56.438Z,999.97
2023-05-02T00:15:56.366Z,999.99
2023-05-02T00:16:57.292Z,999.98
2023-05-02T00:17:56.502Z,999.97
2023-05-02T00:18:56.385Z,999.96
2023-05-02T00:19:56.357Z,999.98
2023-05-02T00:20:56.364Z,999.98
2023-05-02T00:21:56.345Z,999.96
2023-05-02T00:22:56.344Z,999.95
2023-05-02T00:23:56.337Z,999.99
2023-05-02T00:24:56.882Z,999.97
2023-05-02T00:25:56.321Z,1000.04
2023-05-02T00:26:56.341Z,1000.04
2023-05-02T00:27:56.312Z,1000.02
2023-05-02T00:28:56.361Z,999.98
2023-05-02T00:29:56.261Z,999.96
2023-05-02T00:30:56.305Z,999.90
2023-05-02T00:31:56.884Z,999.90
2023-05-02T00:32:56.418Z,999.89
2023-05-02T00:33:56.240Z,999.90
2023-05-02T00:34:56.232Z,999.90
2023-05-02T00:35:56.276Z,999.93
2023-05-02T00:36:56.228Z,999.95
2023-05-02T00:37:56.357Z,999.94
2023-05-02T00:38:56.216Z,999.92
2023-05-02T00:39:56.212Z,999.91
2023-05-02T00:40:56.224Z,999.96
2023-05-02T00:41:56.202Z,999.84
2023-05-02T00:42:56.161Z,999.91
2023-05-02T00:43:56.169Z,999.97
2023-05-02T00:44:56.188Z,999.95
2023-05-02T00:45:56.153Z,999.92
2023-05-02T00:46:56.220Z,999.91
2023-05-02T00:47:56.169Z,999.97
2023-05-02T00:48:56.150Z,999.96
2023-05-02T00:49:56.169Z,1000.01
2023-05-02T00:50:56.109Z,1000.00
2023-05-02T00:51:56.438Z,999.99
2023-05-02T00:52:56.114Z,999.99
2023-05-02T00:53:56.125Z,999.99
2023-05-02T00:54:56.223Z,999.96
2023-05-02T00:55:56.058Z,999.93
2023-05-02T00:56:56.058Z,999.96
2023-05-02T00:57:56.051Z,999.98
2023-05-02T00:58:56.066Z,999.94
2023-05-02T00:59:56.983Z,999.99
2023-05-02T01:00:56.058Z,999.96
2023-05-02T01:01:56.063Z,1000.02
2023-05-02T01:02:56.123Z,1000.05
2023-05-02T01:03:56.134Z,999.97
2023-05-02T01:04:56.060Z,999.99
2023-05-02T01:05:56.002Z,1000.03
2023-05-02T01:06:55.989Z,1000.00
2023-05-02T01:07:55.984Z,999.96
2023-05-02T01:08:55.978Z,999.98
2023-05-02T01:09:55.999Z,999.96
2023-05-02T01:10:55.968Z,999.99
2023-05-02T01:11:55.954Z,999.99
2023-05-02T01:12:55.962Z,999.99
2023-05-02T01:13:55.951Z,999.95
2023-05-02T01:14:55.973Z,1000.01
2023-05-02T01:15:55.940Z,1000.05
2023-05-02T01:16:55.921Z,999.98
2023-05-02T01:17:55.918Z,1000.03
2023-05-02T01:18:55.903Z,999.97
2023-05-02T01:19:55.918Z,1000.01
2023-05-02T01:20:55.910Z,1000.05
2023-05-02T01:21:55.876Z,1000.01
2023-05-02T01:22:55.872Z,1000.08
2023-05-02T01:23:55.854Z,1000.07
2023-05-02T01:24:55.835Z,1000.07
2023-05-02T01:25:55.867Z,1000.07
2023-05-02T01:26:55.855Z,1000.14
2023-05-02T01:27:55.858Z,1000.07
2023-05-02T01:28:55.821Z,1000.12
2023-05-02T01:29:55.801Z,1000.10
2023-05-02T01:30:55.832Z,1000.14
2023-05-02T01:31:55.814Z,1000.13
2023-05-02T01:32:55.912Z,1000.08
2023-05-02T01:33:55.792Z,1000.13
2023-05-02T01:34:55.763Z,1000.14
2023-05-02T01:35:55.793Z,1000.25
2023-05-02T01:36:55.820Z,1000.23
2023-05-02T01:37:55.761Z,1000.21
2023-05-02T01:38:55.776Z,1000.24
2023-05-02T01:39:55.748Z,1000.23
2023-05-02T01:40:55.740Z,1000.28
2023-05-02T01:41:56.761Z,1000.27
2023-05-02T01:42:55.741Z,1000.25
2023-05-02T01:43:55.765Z,1000.25
2023-05-02T01:44:55.705Z,1000.27
2023-05-02T01:45:55.692Z,1000.27
2023-05-02T01:46:55.774Z,1000.28
2023-05-02T01:47:55.697Z,1000.36
2023-05-02T01:48:55.697Z,1000.30
2023-05-02T01:49:55.660Z,1000.35
2023-05-02T01:50:55.668Z,1000.29
2023-05-02T01:51:55.662Z,1000.38
2023-05-02T01:52:55.704Z,1000.32
2023-05-02T01:53:55.620Z,1000.39
2023-05-02T01:54:55.640Z,1000.40
2023-05-02T01:55:55.614Z,1000.40
2023-05-02T01:56:55.619Z,1000.38
2023-05-02T01:57:55.654Z,1000.43
2023-05-02T01:58:55.592Z,1000.40
2023-05-02T01:59:55.601Z,1000.40
2023-05-02T02:00:55.611Z,1000.42
2023-05-02T02:01:55.572Z,1000.36
2023-05-02T02:02:55.609Z,1000.45
2023-05-02T02:03:55.609Z,1000.40
2023-05-02T02:04:55.547Z,1000.37
2023-05-02T02:05:55.538Z,1000.37
2023-05-02T02:06:55.546Z,1000.42
2023-05-02T02:07:55.546Z,1000.40
2023-05-02T02:08:55.518Z,1000.43
2023-05-02T02:09:55.500Z,1000.45
2023-05-02T02:10:55.498Z,1000.46
2023-05-02T02:11:55.501Z,1000.47
2023-05-02T02:12:55.512Z,1000.45
2023-05-02T02:13:55.500Z,1000.51
2023-05-02T02:14:55.467Z,1000.43
2023-05-02T02:15:55.464Z,1000.42
2023-05-02T02:16:55.552Z,1000.45
2023-05-02T02:17:55.494Z,1000.48
2023-05-02T02:18:55.450Z,1000.49
2023-05-02T02:19:55.441Z,1000.48
2023-05-02T02:20:55.438Z,1000.46
2023-05-02T02:21:55.438Z,1000.45
2023-05-02T02:22:56.395Z,1000.47
2023-05-02T02:23:55.399Z,1000.48
2023-05-02T02:24:55.420Z,1000.51
2023-05-02T02:25:55.384Z,1000.54
2023-05-02T02:26:55.353Z,1000.55
2023-05-02T02:27:55.356Z,1000.54
2023-05-02T02:28:55.351Z,1000.56
2023-05-02T02:29:55.365Z,1000.58
2023-05-02T02:30:55.400Z,1000.64
2023-05-02T02:31:55.351Z,1000.55
2023-05-02T02:32:55.352Z,1000.64
2023-05-02T02:33:55.343Z,1000.61
2023-05-02T02:34:55.347Z,1000.64
2023-05-02T02:35:55.300Z,1000.62
2023-05-02T02:36:55.317Z,1000.61
2023-05-02T02:37:55.282Z,1000.59
2023-05-02T02:38:55.259Z,1000.66
2023-05-02T02:39:55.279Z,1000.63
2023-05-02T02:40:55.263Z,1000.70
2023-05-02T02:41:55.371Z,1000.63
2023-05-02T02:42:55.246Z,1000.69
2023-05-02T02:43:55.231Z,1000.69
2023-05-02T02:44:55.228Z,1000.66
2023-05-02T02:45:55.268Z,1000.70
2023-05-02T02:46:55.238Z,1000.69
2023-05-02T02:47:55.313Z,1000.65
2023-05-02T02:48:55.221Z,1000.68
2023-05-02T02:49:55.196Z,1000.70
2023-05-02T02:50:55.182Z,1000.74
2023-05-02T02:51:55.191Z,1000.72
2023-05-02T02:52:55.186Z,1000.72
2023-05-02T02:53:55.154Z,1000.70
2023-05-02T02:54:55.162Z,1000.74
2023-05-02T02:55:55.133Z,1000.72
2023-05-02T02:56:55.151Z,1000.78
2023-05-02T02:57:56.200Z,1000.77
2023-05-02T02:58:55.147Z,1000.76
2023-05-02T02:59:55.120Z,1000.74
2023-05-02T03:00:55.121Z,1000.79
2023-05-02T03:01:55.155Z,1000.76
2023-05-02T03:02:55.127Z,1000.83
2023-05-02T03:03:55.212Z,1000.78
2023-05-02T03:04:55.068Z,1000.78
2023-05-02T03:05:55.058Z,1000.87
2023-05-02T03:06:55.120Z,1000.84
2023-05-02T03:07:55.045Z,1000.85
2023-05-02T03:08:55.054Z,1000.90
2023-05-02T03:09:55.035Z,1000.86
2023-05-02T03:10:55.049Z,1000.92
2023-05-02T03:11:55.016Z,1000.94
2023-05-02T03:12:55.024Z,1000.97
2023-05-02T03:13:54.999Z,1000.96
2023-05-02T03:14:54.996Z,1001.02
2023-05-02T03:15:55.030Z,1001.04
2023-05-02T03:16:54.984Z,1001.05
2023-05-02T03:17:55.077Z,1001.05
2023-05-02T03:18:54.946Z,1001.11
2023-05-02T03:19:54.949Z,1001.09
2023-05-02T03:20:54.974Z,1001.15
2023-05-02T03:21:55.899Z,1001.15
2023-05-02T03:22:55.892Z,1001.17
2023-05-02T03:23:54.900Z,1001.20
2023-05-02T03:24:54.909Z,1001.21
2023-05-02T03:25:54.960Z,1001.22
2023-05-02T03:26:54.892Z,1001.24
2023-05-02T03:27:54.875Z,1001.29
2023-05-02T03:28:54.878Z,1001.35
2023-05-02T03:29:54.862Z,1001.32
2023-05-02T03:30:54.885Z,1001.32
2023-05-02T03:31:54.890Z,1001.37
2023-05-02T03:32:55.431Z,1001.33
2023-05-02T03:33:54.825Z,1001.32
2023-05-02T03:34:54.824Z,1001.33
2023-05-02T03:35:54.827Z,1001.35
2023-05-02T03:36:54.843Z,1001.35
2023-05-02T03:37:54.853Z,1001.34
2023-05-02T03:38:55.400Z,1001.34
2023-05-02T03:39:54.795Z,1001.38
2023-05-02T03:40:55.309Z,1001.37
2023-05-02T03:41:54.783Z,1001.34
2023-05-02T03:42:54.972Z,1001.33
2023-05-02T03:43:54.793Z,1001.35
2023-05-02T03:44:54.765Z,1001.37
2023-05-02T03:45:55.390Z,1001.29
2023-05-02T03:46:55.425Z,1001.34
2023-05-02T04:02:35.341Z,1001.59
2023-05-02T04:03:35.233Z,1001.65
2023-05-02T04:04:35.269Z,1001.62
2023-05-02T04:05:35.188Z,1001.65
2023-05-02T04:06:37.335Z,1001.65
2023-05-02T04:07:36.355Z,1001.64
2023-05-02T04:08:36.294Z,1001.67
2023-05-02T04:09:36.338Z,1001.56
2023-05-02T04:10:36.286Z,1001.66
2023-05-02T04:11:36.275Z,1001.65
2023-05-02T04:12:36.268Z,1001.72
2023-05-02T04:13:36.265Z,1001.70
2023-05-02T04:14:36.288Z,1001.67
2023-05-02T04:15:36.258Z,1001.66
2023-05-02T04:16:36.427Z,1001.74
2023-05-02T04:17:36.311Z,1001.72
2023-05-02T04:18:36.223Z,1001.71
2023-05-02T04:19:36.225Z,1001.70
2023-05-02T04:20:36.212Z,1001.72
2023-05-02T04:21:36.250Z,1001.73
2023-05-02T04:22:36.198Z,1001.77
2023-05-02T04:23:36.201Z,1001.79
2023-05-02T04:24:36.216Z,1001.75
2023-05-02T04:25:36.189Z,1001.84
2023-05-02T04:26:36.196Z,1001.82
2023-05-02T04:27:36.178Z,1001.81
2023-05-02T04:28:36.169Z,1001.85
2023-05-02T04:29:36.146Z,1001.81
2023-05-02T04:30:36.147Z,1001.86
2023-05-02T04:31:36.196Z,1001.93
2023-05-02T04:32:36.186Z,1001.95
2023-05-02T04:33:36.135Z,1001.94
2023-05-02T04:34:36.137Z,1001.91
2023-05-02T04:35:36.151Z,1001.93
2023-05-02T04:36:36.075Z,1001.94
2023-05-02T04:37:36.110Z,1001.89
2023-05-02T04:38:36.091Z,1001.98
2023-05-02T04:39:36.077Z,1001.95
2023-05-02T04:40:36.059Z,1002.00
2023-05-02T04:41:36.060Z,1001.99
2023-05-02T04:42:36.048Z,1002.06
2023-05-02T04:43:36.068Z,1002.06
2023-05-02T04:44:36.018Z,1002.11
2023-05-02T04:45:36.007Z,1002.06
2023-05-02T04:46:36.022Z,1002.09
2023-05-02T04:47:36.096Z,1002.17
2023-05-02T04:48:35.991Z,1002.18
2023-05-02T04:49:36.098Z,1002.20
2023-05-02T04:50:35.966Z,1002.24
2023-05-02T04:51:35.989Z,1002.18
2023-05-02T04:52:35.953Z,1002.17
2023-05-02T04:53:35.960Z,1002.24
2023-05-02T04:54:35.977Z,1002.22
2023-05-02T04:55:35.958Z,1002.30
2023-05-02T04:56:36.855Z,1002.31
2023-05-02T04:57:35.928Z,1002.27
2023-05-02T04:58:35.930Z,1002.23
2023-05-02T04:59:35.937Z,1002.34
2023-05-02T05:00:35.905Z,1002.34
2023-05-02T05:01:35.916Z,1002.33
2023-05-02T05:02:35.941Z,1002.35
2023-05-02T05:03:35.970Z,1002.31
2023-05-02T05:04:35.902Z,1002.34
2023-05-02T05:05:35.918Z,1002.32
2023-05-02T05:06:35.898Z,1002.35
2023-05-02T05:07:35.883Z,1002.30
2023-05-02T05:08:35.860Z,1002.39
2023-05-02T05:09:35.860Z,1002.31
2023-05-02T05:10:35.867Z,1002.35
2023-05-02T05:11:35.860Z,1002.32
2023-05-02T05:12:35.833Z,1002.33
2023-05-02T05:13:36.436Z,1002.34
2023-05-02T05:14:35.802Z,1002.35
2023-05-02T05:15:35.797Z,1002.37
2023-05-02T05:16:35.859Z,1002.34
2023-05-02T05:17:35.828Z,1002.36
2023-05-02T05:18:35.772Z,1002.34
2023-05-02T05:19:35.772Z,1002.36
2023-05-02T05:20:35.801Z,1002.38
2023-05-02T05:21:35.738Z,1002.34
2023-05-02T05:22:35.725Z,1002.32
2023-05-02T05:23:35.753Z,1002.28
2023-05-02T05:24:35.736Z,1002.33
2023-05-02T05:25:35.721Z,1002.29
2023-05-02T05:26:35.737Z,1002.33
2023-05-02T05:27:35.689Z,1002.35
2023-05-02T05:28:35.738Z,1002.37
2023-05-02T05:29:35.696Z,1002.40
2023-05-02T05:30:35.700Z,1002.38
2023-05-02T05:31:35.710Z,1002.43
2023-05-02T05:32:35.732Z,1002.37
2023-05-02T05:33:35.707Z,1002.45
2023-05-02T05:34:35.655Z,1002.44
2023-05-02T05:35:35.634Z,1002.54
2023-05-02T05:36:35.639Z,1002.53
2023-05-02T05:37:35.649Z,1002.51
2023-05-02T05:38:35.604Z,1002.52
2023-05-02T05:39:35.605Z,1002.57
2023-05-02T05:40:35.611Z,1002.57
2023-05-02T05:41:35.605Z,1002.54
2023-05-02T05:42:35.583Z,1002.61
2023-05-02T05:43:37.354Z,1002.54
2023-05-02T05:44:35.614Z,1002.52
2023-05-02T05:45:35.545Z,1002.57
2023-05-02T05:46:35.569Z,1002.57
2023-05-02T05:47:35.724Z,1002.52
2023-05-02T05:48:35.534Z,1002.48
2023-05-02T05:49:35.978Z,1002.47
2023-05-02T05:50:35.567Z,1002.54
2023-05-02T05:51:35.511Z,1002.50
2023-05-02T05:52:35.533Z,1002.50
2023-05-02T05:53:35.559Z,1002.53
2023-05-02T05:54:35.489Z,1002.47
2023-05-02T05:55:37.344Z,1002.52
2023-05-02T05:56:36.475Z,1002.52
2023-05-02T05:57:35.600Z,1002.52
2023-05-02T05:58:35.465Z,1002.53
2023-05-02T05:59:35.487Z,1002.52
2023-05-02T06:00:35.472Z,1002.49
2023-05-02T06:01:35.456Z,1002.48
2023-05-02T06:02:36.335Z,1002.55
2023-05-02T06:03:36.222Z,1002.48
2023-05-02T06:04:35.448Z,1002.56
2023-05-02T06:05:35.434Z,1002.57
2023-05-02T06:06:35.442Z,1002.58
2023-05-02T06:07:35.390Z,1002.61
2023-05-02T06:08:35.413Z,1002.60
2023-05-02T06:09:35.386Z,1002.62
2023-05-02T06:10:35.422Z,1002.59
2023-05-02T06:11:35.379Z,1002.60
2023-05-02T06:12:35.382Z,1002.60
2023-05-02T06:13:35.375Z,1002.58
2023-05-02T06:14:35.338Z,1002.59
2023-05-02T06:15:35.328Z,1002.52
2023-05-02T06:16:35.537Z,1002.53
2023-05-02T06:17:35.327Z,1002.53
2023-05-02T06:18:35.332Z,1002.57
2023-05-02T06:19:35.307Z,1002.53
2023-05-02T06:20:35.313Z,1002.50
2023-05-02T06:21:35.298Z,1002.49
2023-05-02T06:22:35.299Z,1002.54
2023-05-02T06:23:35.268Z,1002.49
2023-05-02T06:24:35.290Z,1002.50
2023-05-02T06:25:35.250Z,1002.42
2023-05-02T06:26:35.288Z,1002.43
2023-05-02T06:27:35.237Z,1002.44
2023-05-02T06:28:35.236Z,1002.46
2023-05-02T06:29:35.216Z,1002.48
2023-05-02T06:30:35.251Z,1002.54
2023-05-02T06:31:35.274Z,1002.52
2023-05-02T06:32:35.241Z,1002.53
2023-05-02T06:33:36.193Z,1002.58
2023-05-02T06:34:35.203Z,1002.51
2023-05-02T06:35:35.193Z,1002.54
2023-05-02T06:36:35.145Z,1002.57
2023-05-02T06:37:35.159Z,1002.60
2023-05-02T06:38:35.150Z,1002.66
2023-05-02T06:39:35.125Z,1002.60
2023-05-02T06:40:35.135Z,1002.63
2023-05-02T06:41:35.124Z,1002.65
2023-05-02T06:42:35.146Z,1002.66
2023-05-02T06:43:35.095Z,1002.67
2023-05-02T06:44:35.096Z,1002.67
2023-05-02T06:45:35.104Z,1002.65
2023-05-02T06:46:35.149Z,1002.60
2023-05-02T06:47:35.097Z,1002.56
2023-05-02T06:48:35.066Z,1002.62
2023-05-02T06:49:35.071Z,1002.57
2023-05-02T06:50:35.944Z,1002.63
2023-05-02T06:51:35.087Z,1002.50
2023-05-02T06:52:35.936Z,1002.54
2023-05-02T06:53:35.028Z,1002.48
2023-05-02T06:54:35.021Z,1002.48
2023-05-02T06:55:35.015Z,1002.41
2023-05-02T06:56:35.021Z,1002.49
2023-05-02T06:57:35.026Z,1002.47
2023-05-02T06:58:34.986Z,1002.41
2023-05-02T06:59:34.972Z,1002.43
2023-05-02T07:00:35.051Z,1002.41
2023-05-02T07:01:35.041Z,1002.42
2023-05-02T07:02:34.986Z,1002.39
2023-05-02T07:03:34.960Z,1002.39
2023-05-02T07:04:34.989Z,1002.55
2023-05-02T07:05:34.945Z,1002.46
2023-05-02T07:06:34.993Z,1002.48
2023-05-02T07:07:34.947Z,1002.52
2023-05-02T07:08:34.930Z,1002.57
2023-05-02T07:09:35.800Z,1002.62
2023-05-02T07:10:34.900Z,1002.61
2023-05-02T07:11:34.888Z,1002.60
2023-05-02T07:12:34.889Z,1002.69
2023-05-02T07:13:35.064Z,1002.80
2023-05-02T07:14:35.468Z,1002.79
2023-05-02T07:15:34.837Z,1002.78
2023-05-02T07:16:34.887Z,1002.84
2023-05-02T07:17:34.894Z,1002.79
2023-05-02T07:18:34.876Z,1002.81
2023-05-02T07:19:34.831Z,1002.87
2023-05-02T07:20:34.810Z,1002.86
2023-05-02T07:21:34.796Z,1002.85
2023-05-02T07:22:34.789Z,1002.85
2023-05-02T07:23:34.796Z,1002.88
2023-05-02T07:24:34.810Z,1002.88
2023-05-02T07:25:34.762Z,1002.86
2023-05-02T07:26:34.767Z,1002.87
2023-05-02T07:27:34.755Z,1002.87
2023-05-02T07:28:34.737Z,1002.89
2023-05-02T07:29:34.797Z,1002.88
2023-05-02T07:30:34.750Z,1002.91
2023-05-02T07:31:34.758Z,1002.94
2023-05-02T07:32:34.832Z,1002.89
2023-05-02T07:33:34.764Z,1002.93
2023-05-02T07:34:34.738Z,1002.97
2023-05-02T07:35:34.683Z,1002.95
2023-05-02T07:36:34.703Z,1002.96
2023-05-02T07:37:34.765Z,1002.98
2023-05-02T07:38:34.692Z,1002.92
2023-05-02T07:39:34.701Z,1002.99
2023-05-02T07:40:34.694Z,1002.92
2023-05-02T07:41:34.667Z,1002.98
2023-05-02T07:42:35.656Z,1002.99
2023-05-02T07:43:34.639Z,1002.95
2023-05-02T07:44:34.644Z,1002.99
2023-05-02T07:45:34.635Z,1003.08
2023-05-02T07:46:34.737Z,1002.98
2023-05-02T07:47:34.617Z,1003.08
2023-05-02T07:48:35.469Z,1003.06
2023-05-02T07:49:34.640Z,1003.05
2023-05-02T07:50:34.580Z,1003.14
2023-05-02T07:51:34.584Z,1003.11
2023-05-02T07:52:34.590Z,1003.19
2023-05-02T07:53:34.581Z,1003.20
2023-05-02T07:54:34.561Z,1003.29
2023-05-02T07:55:34.551Z,1003.39
2023-05-02T07:56:34.533Z,1003.38
2023-05-02T07:57:34.577Z,1003.36
2023-05-02T07:58:34.570Z,1003.33
2023-05-02T07:59:34.500Z,1003.49
2023-05-02T08:00:34.531Z,1003.50
2023-05-02T08:01:34.491Z,1003.46
2023-05-02T08:02:34.514Z,1003.55
2023-05-02T08:03:34.901Z,1003.64
2023-05-02T08:04:34.557Z,1003.63
2023-05-02T08:05:34.483Z,1003.59
2023-05-02T08:06:34.526Z,1003.68
2023-05-02T08:07:34.440Z,1003.60
2023-05-02T08:08:34.477Z,1003.67
2023-05-02T08:09:34.455Z,1003.69
2023-05-02T08:10:34.462Z,1003.73
2023-05-02T08:11:34.433Z,1003.76
2023-05-02T08:12:34.420Z,1003.76
2023-05-02T08:13:34.487Z,1003.78
2023-05-02T08:14:34.407Z,1003.77
2023-05-02T08:15:34.401Z,1003.75
2023-05-02T08:16:34.546Z,1003.86
2023-05-02T08:17:34.429Z,1003.84
2023-05-02T08:18:34.401Z,1003.87
2023-05-02T08:19:34.386Z,1003.83
2023-05-02T08:20:34.368Z,1003.82
2023-05-02T08:22:06.286Z,1003.81
2023-05-02T08:22:34.360Z,1003.86
2023-05-02T08:23:34.325Z,1003.86
2023-05-02T08:24:34.343Z,1003.79
2023-05-02T08:25:34.335Z,1003.74
2023-05-02T08:26:34.310Z,1003.72
2023-05-02T08:27:34.294Z,1003.71
2023-05-02T08:28:34.328Z,1003.67
2023-05-02T08:29:34.314Z,1003.62
2023-05-02T08:30:34.282Z,1003.61
2023-05-02T08:31:34.295Z,1003.54
2023-05-02T08:32:34.322Z,1003.61
2023-05-02T08:33:34.249Z,1003.54
2023-05-02T08:34:34.273Z,1003.45
2023-05-02T08:35:34.250Z,1003.48
2023-05-02T08:36:34.228Z,1003.43
2023-05-02T08:37:34.217Z,1003.43
2023-05-02T08:38:34.278Z,1003.33
2023-05-02T08:39:34.229Z,1003.35
2023-05-02T08:40:41.442Z,1003.24
2023-05-02T08:41:36.229Z,1003.17
2023-05-02T08:42:34.192Z,1003.13
2023-05-02T08:43:34.169Z,1003.15
2023-05-02T08:44:35.007Z,1003.02
2023-05-02T08:45:34.183Z,1003.13
2023-05-02T08:46:34.253Z,1003.12
2023-05-02T08:47:34.208Z,1003.15
2023-05-02T08:48:34.133Z,1003.08
2023-05-02T08:49:34.136Z,1003.15
2023-05-02T08:50:34.143Z,1003.15
2023-05-02T08:51:34.199Z,1003.24
2023-05-02T08:52:34.124Z,1003.22
2023-05-02T08:53:34.224Z,1003.27
2023-05-02T08:54:34.098Z,1003.33
2023-05-02T08:55:34.082Z,1003.39
2023-05-02T08:56:34.120Z,1003.32
2023-05-02T08:57:34.092Z,1003.47
2023-05-02T08:58:34.077Z,1003.52
2023-05-02T08:59:34.058Z,1003.54
2023-05-02T09:00:34.068Z,1003.56
2023-05-02T09:01:34.169Z,1003.63
2023-05-02T09:02:34.104Z,1003.64
2023-05-02T09:03:34.029Z,1003.73
2023-05-02T09:04:34.079Z,1003.71
2023-05-02T09:05:34.004Z,1003.74
2023-05-02T09:06:34.025Z,1003.84
2023-05-02T09:07:34.018Z,1003.83
2023-05-02T09:08:34.542Z,1003.82
2023-05-02T09:09:34.000Z,1003.82
2023-05-02T09:10:33.957Z,1003.88
2023-05-02T09:11:33.963Z,1003.82
2023-05-02T09:12:33.975Z,1003.84
2023-05-02T09:13:33.932Z,1003.82
2023-05-02T09:14:33.993Z,1003.73
2023-05-02T09:15:33.949Z,1003.74
2023-05-02T09:16:33.949Z,1003.64
2023-05-02T09:17:34.035Z,1003.60
2023-05-02T09:18:33.925Z,1003.54
2023-05-02T09:19:33.881Z,1003.45
2023-05-02T09:20:33.894Z,1003.40
2023-05-02T09:21:33.890Z,1003.45
2023-05-02T09:22:33.878Z,1003.36
2023-05-02T09:23:33.868Z,1003.41
2023-05-02T09:24:33.887Z,1003.43
2023-05-02T09:25:33.862Z,1003.41
2023-05-02T09:26:33.894Z,1003.41
2023-05-02T09:27:33.828Z,1003.37
2023-05-02T09:28:33.849Z,1003.38
2023-05-02T09:29:33.855Z,1003.42
2023-05-02T09:30:33.838Z,1003.43
2023-05-02T09:31:54.404Z,1003.37
2023-05-02T09:32:35.824Z,1003.38
2023-05-02T09:33:33.824Z,1003.30
2023-05-02T09:34:33.838Z,1003.28
2023-05-02T09:35:33.791Z,1003.17
2023-05-02T09:36:33.804Z,1003.16
2023-05-02T09:37:33.877Z,1003.21
2023-05-02T09:38:33.799Z,1003.22
2023-05-02T09:39:33.762Z,1003.29
2023-05-02T09:40:33.740Z,1003.13
2023-05-02T09:41:33.770Z,1003.34
2023-05-02T09:42:33.726Z,1003.40
2023-05-02T09:43:33.765Z,1003.45
2023-05-02T09:44:34.568Z,1003.53
2023-05-02T09:45:33.700Z,1003.58
2023-05-02T09:46:33.809Z,1003.66
2023-05-02T09:47:33.750Z,1003.73
2023-05-02T09:48:33.696Z,1003.76
2023-05-02T09:49:33.686Z,1003.90
2023-05-02T09:50:34.746Z,1003.85
2023-05-02T09:51:33.673Z,1003.90
2023-05-02T09:52:33.698Z,1003.97
2023-05-02T09:53:33.645Z,1004.05
2023-05-02T09:54:33.640Z,1004.04
2023-05-02T09:55:33.682Z,1004.05
2023-05-02T09:56:33.613Z,1004.12
2023-05-02T09:57:33.622Z,1004.10
2023-05-02T09:58:33.626Z,1004.09
2023-05-02T09:59:33.606Z,1004.13
2023-05-02T10:00:33.611Z,1004.18
2023-05-02T10:01:33.607Z,1004.15
2023-05-02T10:02:33.892Z,1004.12
2023-05-02T10:03:33.612Z,1004.16
2023-05-02T10:04:33.642Z,1004.17
2023-05-02T10:05:33.556Z,1004.18
2023-05-02T10:06:33.607Z,1004.21
2023-05-02T10:07:33.532Z,1004.19
2023-05-02T10:08:33.570Z,1004.18
2023-05-02T10:09:33.515Z,1004.19
2023-05-02T10:10:33.547Z,1004.17
2023-05-02T10:11:33.525Z,1004.19
2023-05-02T10:12:33.543Z,1004.19
2023-05-02T10:13:33.497Z,1004.19
2023-05-02T10:14:33.476Z,1004.21
2023-05-02T10:15:33.500Z,1004.22
2023-05-02T10:16:33.594Z,1004.19
2023-05-02T10:17:33.578Z,1004.22
2023-05-02T10:18:33.477Z,1004.21
2023-05-02T10:19:33.448Z,1004.20
2023-05-02T10:20:33.450Z,1004.15
2023-05-02T10:21:33.461Z,1004.13
2023-05-02T10:22:33.463Z,1004.13
2023-05-02T10:23:33.413Z,1004.08
2023-05-02T10:24:33.429Z,1004.06
2023-05-02T10:25:33.429Z,1003.99
2023-05-02T10:26:33.428Z,1004.00
2023-05-02T10:27:33.434Z,1003.96
2023-05-02T10:28:33.418Z,1004.03
2023-05-02T10:29:33.434Z,1003.99
2023-05-02T10:30:33.416Z,1003.99
2023-05-02T10:31:33.401Z,1004.01
2023-05-02T10:32:33.421Z,1004.02
2023-05-02T10:33:33.395Z,1004.05
2023-05-02T10:34:33.348Z,1004.09
2023-05-02T10:35:33.404Z,1004.08
2023-05-02T10:36:33.356Z,1004.09
2023-05-02T10:37:33.318Z,1004.10
2023-05-02T10:38:33.314Z,1004.09
2023-05-02T10:39:33.321Z,1004.15
2023-05-02T10:40:33.300Z,1004.20
2023-05-02T10:41:33.320Z,1004.21
2023-05-02T10:42:33.266Z,1004.28
2023-05-02T10:43:33.253Z,1004.30
2023-05-02T10:44:33.237Z,1004.25
2023-05-02T10:45:33.267Z,1004.29
2023-05-02T10:46:33.331Z,1004.38
2023-05-02T10:47:33.266Z,1004.42
2023-05-02T10:48:33.227Z,1004.48
2023-05-02T10:49:33.207Z,1004.45
2023-05-02T10:50:33.196Z,1004.51
2023-05-02T10:51:33.212Z,1004.56
2023-05-02T10:52:33.251Z,1004.61
2023-05-02T10:53:33.199Z,1004.62
2023-05-02T10:54:33.172Z,1004.63
2023-05-02T10:55:33.173Z,1004.64
2023-05-02T10:56:33.176Z,1004.66
2023-05-02T10:57:33.133Z,1004.71
2023-05-02T10:58:33.127Z,1004.74
2023-05-02T10:59:33.170Z,1004.76
2023-05-02T11:00:33.167Z,1004.80
2023-05-02T11:01:33.207Z,1004.75
2023-05-02T11:02:33.122Z,1004.79
2023-05-02T11:03:33.217Z,1004.83
2023-05-02T11:04:33.128Z,1004.85
2023-05-02T11:05:33.096Z,1004.90
2023-05-02T11:06:33.109Z,1004.90
2023-05-02T11:07:33.066Z,1004.92
2023-05-02T11:08:33.140Z,1004.92
2023-05-02T11:09:33.093Z,1004.91
2023-05-02T11:10:33.049Z,1004.94
2023-05-02T11:11:33.050Z,1004.93
2023-05-02T11:12:33.029Z,1004.91
2023-05-02T11:13:33.030Z,1004.93
2023-05-02T11:14:33.031Z,1004.97
2023-05-02T11:15:33.027Z,1004.93
2023-05-02T11:16:33.576Z,1004.99
2023-05-02T11:17:33.023Z,1005.01
2023-05-02T11:18:33.056Z,1004.94
2023-05-02T11:19:33.501Z,1004.94
2023-05-02T11:20:32.969Z,1004.91
2023-05-02T11:21:33.561Z,1005.01
2023-05-02T11:22:33.558Z,1005.00
2023-05-02T11:23:32.944Z,1004.98
2023-05-02T11:24:32.942Z,1005.01
2023-05-02T11:25:32.973Z,1004.99
2023-05-02T11:26:32.959Z,1004.98
2023-05-02T11:27:32.922Z,1004.98
2023-05-02T11:28:32.935Z,1005.04
2023-05-02T11:29:32.907Z,1005.12
2023-05-02T11:30:32.920Z,1005.16
2023-05-02T11:31:32.976Z,1005.15
2023-05-02T11:32:33.009Z,1005.15
2023-05-02T11:33:32.870Z,1005.12
2023-05-02T11:34:32.857Z,1005.20
2023-05-02T11:35:32.866Z,1005.22
2023-05-02T11:36:33.970Z,1005.14
2023-05-02T11:37:32.830Z,1005.19
2023-05-02T11:38:32.807Z,1005.27
2023-05-02T11:39:32.817Z,1005.26
2023-05-02T11:40:32.833Z,1005.25
2023-05-02T11:41:32.905Z,1005.27
2023-05-02T11:42:32.780Z,1005.30
2023-05-02T11:43:32.955Z,1005.24
2023-05-02T11:44:32.776Z,1005.24
2023-05-02T11:45:32.769Z,1005.27
2023-05-02T11:46:32.855Z,1005.26
2023-05-02T11:47:32.782Z,1005.31
2023-05-02T11:48:33.124Z,1005.31
2023-05-02T11:49:32.749Z,1005.28
2023-05-02T11:50:32.739Z,1005.28
2023-05-02T11:51:32.747Z,1005.30
2023-05-02T11:52:32.747Z,1005.30
2023-05-02T11:53:33.468Z,1005.37
2023-05-02T11:54:32.727Z,1005.33
2023-05-02T11:55:32.780Z,1005.28
2023-05-02T11:56:32.692Z,1005.33
2023-05-02T11:57:32.714Z,1005.32
2023-05-02T11:58:32.987Z,1005.30
2023-05-02T11:59:32.657Z,1005.27
2023-05-02T12:00:32.672Z,1005.32
2023-05-02T12:01:32.653Z,1005.38
2023-05-02T12:02:32.693Z,1005.36
2023-05-02T12:03:32.962Z,1005.34
2023-05-02T12:04:32.638Z,1005.35
2023-05-02T12:05:32.683Z,1005.37
2023-05-02T12:06:32.660Z,1005.33
2023-05-02T12:07:32.665Z,1005.29
2023-05-02T12:08:32.598Z,1005.30
2023-05-02T12:09:32.614Z,1005.36
2023-05-02T12:10:32.613Z,1005.30
2023-05-02T12:11:32.593Z,1005.30
2023-05-02T12:12:33.560Z,1005.30
2023-05-02T12:13:32.593Z,1005.31
2023-05-02T12:14:32.598Z,1005.36
2023-05-02T12:15:33.501Z,1005.31
2023-05-02T12:16:32.564Z,1005.39
2023-05-02T12:17:32.601Z,1005.38
2023-05-02T12:18:32.616Z,1005.39
2023-05-02T12:19:32.543Z,1005.35
2023-05-02T12:20:32.585Z,1005.43
2023-05-02T12:21:32.591Z,1005.39
2023-05-02T12:22:32.515Z,1005.40